createdAt,value
2023-04-15T00:01:19.458Z,35.99
2023-04-15T00:03:48.004Z,35.95
2023-04-15T00:06:16.302Z,35.93
2023-04-15T00:16:24.199Z,35.97
2023-04-15T00:18:52.077Z,35.90
2023-04-15T00:21:20.228Z,35.97
2023-04-15T00:23:52.658Z,35.95
2023-04-15T00:26:20.993Z,35.91
2023-04-15T00:28:49.993Z,36.00
2023-04-15T00:31:18.044Z,36.02
2023-04-15T00:33:46.136Z,35.93
2023-04-15T00:36:14.640Z,35.92
2023-04-15T00:38:42.697Z,35.94
2023-04-15T00:41:10.736Z,35.94
2023-04-15T00:43:38.760Z,35.91
2023-04-15T00:46:06.906Z,36.02
2023-04-15T00:48:34.943Z,35.86
2023-04-15T00:51:02.972Z,35.96
2023-04-15T00:53:31.058Z,35.94
2023-04-15T01:01:04.957Z,35.87
2023-04-15T01:03:33.088Z,35.97
2023-04-15T01:06:03.677Z,35.93
2023-04-15T01:08:32.253Z,35.93
2023-04-15T01:11:02.251Z,35.89
2023-04-15T01:13:30.534Z,35.89
2023-04-15T01:15:58.651Z,35.99
2023-04-15T01:18:26.751Z,35.95
2023-04-15T01:20:54.726Z,35.95
2023-04-15T01:23:25.374Z,35.98
2023-04-15T01:25:53.535Z,36.08
2023-04-15T01:28:21.609Z,35.97
2023-04-15T01:30:49.988Z,36.00
2023-04-15T01:33:17.939Z,35.98
2023-04-15T01:35:47.241Z,35.94
2023-04-15T01:38:16.376Z,35.84
2023-04-15T01:40:46.107Z,35.98
2023-04-15T01:43:14.085Z,35.95
2023-04-15T01:45:43.793Z,35.93
2023-04-15T01:48:12.478Z,35.98
2023-04-15T01:50:40.449Z,35.95
2023-04-15T01:53:08.656Z,35.90
2023-04-15T01:55:37.136Z,35.95
2023-04-15T01:58:05.102Z,35.87
2023-04-15T02:00:33.168Z,35.99
2023-04-15T02:03:01.272Z,35.98
2023-04-15T02:05:29.371Z,35.87
2023-04-15T02:07:57.781Z,35.96
2023-04-15T02:10:25.772Z,35.94
2023-04-15T02:12:54.316Z,35.93
2023-04-15T02:15:22.982Z,35.93
2023-04-15T02:17:52.853Z,35.86
2023-04-15T02:20:21.460Z,35.89
2023-04-15T02:22:49.554Z,35.76
2023-04-15T02:25:17.629Z,35.91
2023-04-15T02:27:45.766Z,35.89
2023-04-15T02:30:13.975Z,35.91
2023-04-15T02:32:45.201Z,35.95
2023-04-15T02:35:13.538Z,35.85
2023-04-15T02:37:43.896Z,35.84
2023-04-15T02:40:12.560Z,35.79
2023-04-15T02:42:41.059Z,35.92
2023-04-15T02:45:12.218Z,35.91
2023-04-15T02:47:41.713Z,35.81
2023-04-15T02:50:12.808Z,35.93
2023-04-15T02:52:42.277Z,35.91
2023-04-15T02:55:10.587Z,35.80
2023-04-15T02:57:39.361Z,35.89
2023-04-15T03:00:11.664Z,35.95
2023-04-15T03:02:43.031Z,35.87
2023-04-15T03:05:12.683Z,35.84
2023-04-15T03:07:42.178Z,35.87
2023-04-15T03:10:10.685Z,35.75
2023-04-15T03:12:38.593Z,35.84
2023-04-15T03:15:07.330Z,35.89
2023-04-15T03:17:38.611Z,35.88
2023-04-15T03:20:07.226Z,35.85
2023-04-15T03:22:35.580Z,35.84
2023-04-15T03:25:03.862Z,35.90
2023-04-15T03:27:33.521Z,35.86
2023-04-15T03:30:02.342Z,35.84
2023-04-15T03:32:33.025Z,35.96
2023-04-15T03:35:01.105Z,35.92
2023-04-15T03:37:29.083Z,35.89
2023-04-15T03:39:56.961Z,35.84
2023-04-15T03:42:24.981Z,35.83
2023-04-15T03:44:52.958Z,35.92
2023-04-15T03:47:21.096Z,35.89
2023-04-15T03:49:49.003Z,35.94
2023-04-15T03:52:17.085Z,36.00
2023-04-15T03:54:45.015Z,35.83
2023-04-15T03:57:13.086Z,35.93
2023-04-15T03:59:41.226Z,35.93
2023-04-15T04:02:09.317Z,35.93
2023-04-15T04:04:37.675Z,35.86
2023-04-15T04:07:05.659Z,35.85
2023-04-15T04:09:33.724Z,35.98
2023-04-15T04:12:02.694Z,35.94
2023-04-15T04:14:30.841Z,35.94
2023-04-15T04:16:58.784Z,35.88
2023-04-15T04:19:26.845Z,35.93
2023-04-15T04:21:54.850Z,35.99
2023-04-15T04:24:22.765Z,35.84
2023-04-15T04:26:51.170Z,35.95
2023-04-15T04:29:19.062Z,35.95
2023-04-15T04:31:48.734Z,35.94
2023-04-15T04:34:16.860Z,35.79
2023-04-15T04:36:44.943Z,35.95
2023-04-15T04:39:13.000Z,35.89
2023-04-15T04:41:41.190Z,35.86
2023-04-15T04:44:09.214Z,35.97
2023-04-15T04:46:37.211Z,35.92
2023-04-15T04:49:05.514Z,36.03
2023-04-15T04:51:33.430Z,35.96
2023-04-15T04:54:03.452Z,35.92
2023-04-15T04:56:31.831Z,35.98
2023-04-15T04:59:00.108Z,35.94
2023-04-15T05:01:28.507Z,36.02
2023-04-15T05:03:56.618Z,35.93
2023-04-15T05:06:24.760Z,35.87
2023-04-15T05:08:52.684Z,35.98
2023-04-15T05:11:21.020Z,35.97
2023-04-15T05:13:48.930Z,35.85
2023-04-15T05:16:17.739Z,35.96
2023-04-15T05:18:45.894Z,35.98
2023-04-15T05:21:13.897Z,35.96
2023-04-15T05:23:41.810Z,35.86
2023-04-15T05:26:09.893Z,35.89
2023-04-15T05:28:37.857Z,35.88
2023-04-15T05:31:06.217Z,35.84
2023-04-15T05:33:34.352Z,35.77
2023-04-15T05:36:02.281Z,35.86
2023-04-15T05:38:30.577Z,35.73
2023-04-15T05:40:58.584Z,35.70
2023-04-15T05:43:26.532Z,35.73
2023-04-15T05:45:54.573Z,35.73
2023-04-15T05:48:22.536Z,35.78
2023-04-15T05:50:50.912Z,35.78
2023-04-15T05:53:18.778Z,35.68
2023-04-15T05:55:46.938Z,35.67
2023-04-15T05:58:15.024Z,35.59
2023-04-15T06:00:44.001Z,35.62
2023-04-15T06:03:12.042Z,35.60
2023-04-15T06:05:40.793Z,35.67
2023-04-15T06:08:08.815Z,35.56
2023-04-15T06:10:37.072Z,35.63
2023-04-15T06:13:05.070Z,35.57
2023-04-15T06:15:33.005Z,35.62
2023-04-15T06:18:00.946Z,35.53
2023-04-15T06:20:29.124Z,35.50
2023-04-15T06:22:57.609Z,35.56
2023-04-15T06:25:25.613Z,35.50
2023-04-15T06:27:53.590Z,35.54
2023-04-15T06:30:23.449Z,35.56
2023-04-15T06:32:52.756Z,35.53
2023-04-15T06:35:20.926Z,35.45
2023-04-15T06:37:48.843Z,35.49
2023-04-15T06:40:17.084Z,35.39
2023-04-15T06:42:45.049Z,35.32
2023-04-15T06:45:12.986Z,35.33
2023-04-15T06:47:42.054Z,35.26
2023-04-15T06:50:10.437Z,35.28
2023-04-15T06:52:38.566Z,35.36
2023-04-15T06:55:07.274Z,35.30
2023-04-15T06:57:35.454Z,35.31
2023-04-15T07:00:05.841Z,35.25
2023-04-15T07:02:33.908Z,35.14
2023-04-15T07:05:02.009Z,35.13
2023-04-15T07:07:30.594Z,35.05
2023-04-15T07:09:58.562Z,35.06
2023-04-15T07:12:26.610Z,35.05
2023-04-15T07:14:54.553Z,34.99
2023-04-15T07:17:22.685Z,34.94
2023-04-15T07:19:50.904Z,35.00
2023-04-15T07:22:18.920Z,35.04
2023-04-15T07:24:46.928Z,35.07
2023-04-15T07:27:14.957Z,34.97
2023-04-15T07:29:42.932Z,34.94
2023-04-15T07:32:10.999Z,34.92
2023-04-15T07:34:38.975Z,34.81
2023-04-15T07:37:06.956Z,34.79
2023-04-15T07:39:34.911Z,34.69
2023-04-15T07:42:04.191Z,34.72
2023-04-15T07:44:32.211Z,34.58
2023-04-15T07:47:00.551Z,34.41
2023-04-15T07:49:28.415Z,34.46
2023-04-15T07:51:57.781Z,34.49
2023-04-15T07:54:25.916Z,34.36
2023-04-15T07:56:54.093Z,34.41
2023-04-15T07:59:22.646Z,34.44
2023-04-15T08:01:50.715Z,34.44
2023-04-15T08:04:18.731Z,34.37
2023-04-15T08:06:48.404Z,34.31
2023-04-15T08:09:16.752Z,34.29
2023-04-15T08:11:44.807Z,34.36
2023-04-15T08:14:12.740Z,34.30
2023-04-15T08:16:40.896Z,34.30
2023-04-15T08:19:08.810Z,34.28
2023-04-15T08:21:36.842Z,34.21
2023-04-15T08:24:04.954Z,34.20
2023-04-15T08:26:32.891Z,34.24
2023-04-15T08:29:00.960Z,34.30
2023-04-15T08:31:30.005Z,34.25
2023-04-15T08:33:58.027Z,34.15
2023-04-15T08:36:27.118Z,34.19
2023-04-15T08:38:55.055Z,34.22
2023-04-15T08:41:26.302Z,34.25
2023-04-15T08:43:58.100Z,34.15
2023-04-15T08:46:26.147Z,34.21
2023-04-15T08:48:56.728Z,34.10
2023-04-15T08:51:25.134Z,34.14
2023-04-15T08:53:53.197Z,34.09
2023-04-15T08:56:24.651Z,34.08
2023-04-15T08:58:52.717Z,34.07
2023-04-15T09:01:21.147Z,34.05
2023-04-15T09:03:49.476Z,33.99
2023-04-15T09:06:17.854Z,33.83
2023-04-15T09:08:45.857Z,33.86
2023-04-15T09:11:13.835Z,33.77
2023-04-15T09:13:41.842Z,33.90
2023-04-15T09:16:09.834Z,33.90
2023-04-15T09:18:38.659Z,33.81
2023-04-15T09:21:11.508Z,33.78
2023-04-15T09:23:40.986Z,33.78
2023-04-15T09:26:08.981Z,33.77
2023-04-15T09:28:43.524Z,33.72
2023-04-15T09:31:12.088Z,33.70
2023-04-15T09:33:55.022Z,33.65
2023-04-15T09:36:23.149Z,33.66
2023-04-15T09:46:41.783Z,33.50
2023-04-15T09:49:10.510Z,33.41
2023-04-15T09:51:38.851Z,33.31
2023-04-15T09:54:07.422Z,33.64
2023-04-15T09:56:41.678Z,33.46
2023-04-15T09:59:09.615Z,33.49
2023-04-15T10:01:37.652Z,33.37
2023-04-15T10:04:06.359Z,33.51
2023-04-15T10:06:34.713Z,33.44
2023-04-15T10:09:02.606Z,33.36
2023-04-15T10:11:31.801Z,33.28
2023-04-15T10:14:00.602Z,33.34
2023-04-15T10:16:28.868Z,33.36
2023-04-15T10:18:57.206Z,33.32
2023-04-15T10:21:25.138Z,33.35
2023-04-15T10:23:53.068Z,33.22
2023-04-15T10:26:21.102Z,33.27
2023-04-15T10:28:49.322Z,33.25
2023-04-15T10:31:17.443Z,33.21
2023-04-15T10:33:46.168Z,33.22
2023-04-15T10:36:14.108Z,33.09
2023-04-15T10:38:43.411Z,33.14
2023-04-15T10:41:22.023Z,33.02
2023-04-15T10:43:52.815Z,33.05
2023-04-15T10:46:38.347Z,33.12
2023-04-15T10:49:24.676Z,33.00
2023-04-15T10:51:53.958Z,33.13
2023-04-15T10:54:24.941Z,32.96
2023-04-15T10:57:17.078Z,33.07
2023-04-15T11:00:06.820Z,33.17
2023-04-15T11:03:00.197Z,32.93
2023-04-15T11:13:25.816Z,32.99
2023-04-15T11:34:00.019Z,32.85
2023-04-15T11:36:29.538Z,32.92
2023-04-15T11:38:58.346Z,32.79
2023-04-15T11:49:05.209Z,32.89
2023-04-15T11:51:34.477Z,32.86
2023-04-15T11:54:02.926Z,32.84
2023-04-15T11:56:32.053Z,32.93
2023-04-15T11:59:00.255Z,32.84
2023-04-15T12:14:34.996Z,32.94
2023-04-15T12:17:04.922Z,32.93
2023-04-15T12:19:37.750Z,32.92
2023-04-15T12:22:09.582Z,32.95
2023-04-15T12:24:38.167Z,32.79
2023-04-15T12:27:07.296Z,33.02
2023-04-15T12:29:36.168Z,32.97
2023-04-15T12:32:05.475Z,32.99
2023-04-15T12:34:37.134Z,32.85
2023-04-15T12:37:06.033Z,32.84
2023-04-15T12:39:38.672Z,32.79
2023-04-15T12:42:06.817Z,32.86
2023-04-15T12:44:35.833Z,32.95
2023-04-15T12:47:04.136Z,32.87
2023-04-15T12:49:32.905Z,32.95
2023-04-15T12:52:01.631Z,33.02
2023-04-15T12:54:30.189Z,32.95
2023-04-15T12:56:58.332Z,32.95
2023-04-15T12:59:26.227Z,32.96
2023-04-15T13:01:54.617Z,33.01
2023-04-15T13:04:23.099Z,32.92
2023-04-15T13:06:51.388Z,32.90
2023-04-15T13:09:19.432Z,33.05
2023-04-15T13:11:47.563Z,33.03
2023-04-15T13:14:15.926Z,33.13
2023-04-15T13:16:43.884Z,32.97
2023-04-15T13:19:11.794Z,32.95
2023-04-15T13:21:39.759Z,33.09
2023-04-15T13:24:08.061Z,33.02
2023-04-15T13:26:36.257Z,32.95
2023-04-15T13:29:05.310Z,33.07
2023-04-15T13:31:33.333Z,32.99
2023-04-15T13:34:01.347Z,33.04
2023-04-15T13:36:29.391Z,33.18
2023-04-15T13:38:57.802Z,33.09
2023-04-15T13:41:25.792Z,33.08
2023-04-15T13:43:53.824Z,33.06
2023-04-15T13:46:22.150Z,33.06
2023-04-15T13:48:50.386Z,33.13
2023-04-15T13:51:18.312Z,33.17
2023-04-15T13:53:46.433Z,33.17
2023-04-15T13:56:14.330Z,33.16
2023-04-15T13:58:42.295Z,33.09
2023-04-15T14:01:10.334Z,33.05
2023-04-15T14:03:38.669Z,33.22
2023-04-15T14:06:06.864Z,33.10
2023-04-15T14:08:34.954Z,33.17
2023-04-15T14:11:02.897Z,33.05
2023-04-15T14:13:31.302Z,33.15
2023-04-15T14:15:59.219Z,33.16
2023-04-15T14:18:27.293Z,33.16
2023-04-15T14:20:55.627Z,33.31
2023-04-15T14:23:23.686Z,33.12
2023-04-15T14:25:52.315Z,33.14
2023-04-15T14:28:20.444Z,33.25
2023-04-15T14:30:48.551Z,33.15
2023-04-15T14:33:16.696Z,33.26
2023-04-15T14:35:44.700Z,33.19
2023-04-15T14:38:12.662Z,33.23
2023-04-15T14:40:41.249Z,33.22
2023-04-15T14:43:09.362Z,33.09
2023-04-15T14:45:38.739Z,33.26
2023-04-15T14:48:10.014Z,33.18
2023-04-15T14:50:38.288Z,33.20
2023-04-15T14:53:06.202Z,33.15
2023-04-15T14:55:34.258Z,33.21
2023-04-15T14:58:02.707Z,33.26
2023-04-15T15:00:30.884Z,33.11
2023-04-15T15:02:59.128Z,33.17
2023-04-15T15:05:27.531Z,33.22
2023-04-15T15:07:55.545Z,33.11
2023-04-15T15:10:33.087Z,33.13
2023-04-15T15:13:11.699Z,33.11
2023-04-15T15:15:39.993Z,33.13
2023-04-15T15:18:08.054Z,33.16
2023-04-15T15:20:36.245Z,33.24
2023-04-15T15:23:04.256Z,33.19
2023-04-15T15:25:32.151Z,33.11
2023-04-15T15:28:00.113Z,33.17
2023-04-15T15:30:28.146Z,33.12
2023-04-15T15:32:56.043Z,33.29
2023-04-15T15:35:24.149Z,33.25
2023-04-15T15:37:52.555Z,33.32
2023-04-15T15:40:20.502Z,33.21
2023-04-15T15:42:50.891Z,33.39
2023-04-15T15:45:18.910Z,33.22
2023-04-15T15:47:47.000Z,33.31
2023-04-15T15:50:15.027Z,33.23
2023-04-15T15:52:42.921Z,33.30
2023-04-15T15:55:11.003Z,33.25
2023-04-15T15:57:38.875Z,33.30
2023-04-15T16:00:12.081Z,33.31
2023-04-15T16:03:04.937Z,33.30
2023-04-15T16:05:28.769Z,33.28
2023-04-15T16:07:56.905Z,33.26
2023-04-15T16:10:24.819Z,33.23
2023-04-15T16:12:52.745Z,33.32
2023-04-15T16:15:20.723Z,33.30
2023-04-15T16:17:48.758Z,33.24
2023-04-15T16:20:17.281Z,33.31
2023-04-15T16:22:45.402Z,33.35
2023-04-15T16:25:13.354Z,33.35
2023-04-15T16:27:57.149Z,33.23
2023-04-15T16:30:28.974Z,33.31
2023-04-15T16:32:57.249Z,33.43
2023-04-15T16:35:25.343Z,33.27
2023-04-15T16:37:53.372Z,33.35
2023-04-15T16:40:21.301Z,33.37
2023-04-15T16:42:50.297Z,33.36
2023-04-15T16:45:18.395Z,33.34
2023-04-15T16:47:46.334Z,33.41
2023-04-15T16:50:14.445Z,33.40
2023-04-15T16:52:42.295Z,33.50
2023-04-15T16:55:10.353Z,33.45
2023-04-15T16:58:01.554Z,33.45
2023-04-15T17:00:26.493Z,33.50
2023-04-15T17:02:57.712Z,33.43
2023-04-15T17:05:27.725Z,33.58
2023-04-15T17:07:55.896Z,33.43
2023-04-15T17:10:23.773Z,33.53
2023-04-15T17:12:52.410Z,33.62
2023-04-15T17:15:20.686Z,33.54
2023-04-15T17:17:48.728Z,33.65
2023-04-15T17:20:17.637Z,33.62
2023-04-15T17:22:45.763Z,33.62
2023-04-15T17:25:14.206Z,33.69
2023-04-15T17:27:42.192Z,33.68
2023-04-15T17:30:10.325Z,33.70
2023-04-15T17:32:39.503Z,33.80
2023-04-15T17:35:07.998Z,33.67
2023-04-15T17:37:36.241Z,33.78
2023-04-15T17:40:06.004Z,33.68
2023-04-15T17:42:36.058Z,33.73
2023-04-15T17:45:04.181Z,33.73
2023-04-15T17:47:32.400Z,33.80
2023-04-15T17:50:00.461Z,33.81
2023-04-15T17:52:28.996Z,33.75
2023-04-15T17:54:57.069Z,33.83
2023-04-15T17:57:25.393Z,33.76
2023-04-15T17:59:53.411Z,33.85
2023-04-15T18:02:21.649Z,33.78
2023-04-15T18:04:49.852Z,33.92
2023-04-15T18:07:17.841Z,33.88
2023-04-15T18:09:46.312Z,33.98
2023-04-15T18:12:14.297Z,33.91
2023-04-15T18:14:42.283Z,33.93
2023-04-15T18:17:10.885Z,33.89
2023-04-15T18:19:38.790Z,33.84
2023-04-15T18:22:06.838Z,33.96
2023-04-15T18:24:35.120Z,34.02
2023-04-15T18:27:03.762Z,34.05
2023-04-15T18:29:31.664Z,34.01
2023-04-15T18:32:00.410Z,34.05
2023-04-15T18:34:31.318Z,34.05
2023-04-15T18:36:59.446Z,34.05
2023-04-15T18:39:27.657Z,34.13
2023-04-15T18:41:56.227Z,34.08
2023-04-15T18:44:24.338Z,34.12
2023-04-15T18:46:52.424Z,34.06
2023-04-15T18:49:20.448Z,34.05
2023-04-15T18:51:48.452Z,34.20
2023-04-15T18:54:16.582Z,34.12
2023-04-15T18:56:44.541Z,34.16
2023-04-15T18:59:29.291Z,34.19
2023-04-15T19:01:59.382Z,34.13
2023-04-15T19:04:29.325Z,34.10
2023-04-15T19:06:59.136Z,34.12
2023-04-15T19:09:28.560Z,34.13
2023-04-15T19:11:56.898Z,34.13
2023-04-15T19:14:24.971Z,34.25
2023-04-15T19:16:53.025Z,34.14
2023-04-15T19:19:21.026Z,34.12
2023-04-15T19:21:50.371Z,34.08
2023-04-15T19:24:18.780Z,34.21
2023-04-15T19:26:52.657Z,34.26
2023-04-15T19:29:20.650Z,34.24
2023-04-15T19:31:48.747Z,34.30
2023-04-15T19:34:16.774Z,34.34
2023-04-15T19:36:44.808Z,34.23
2023-04-15T19:39:13.616Z,34.29
2023-04-15T19:41:41.705Z,34.20
2023-04-15T19:44:09.798Z,34.34
2023-04-15T19:46:37.803Z,34.34
2023-04-15T19:49:06.294Z,34.40
2023-04-15T19:51:34.588Z,34.33
2023-04-15T19:54:02.516Z,34.28
2023-04-15T19:56:32.829Z,34.34
2023-04-15T19:59:02.373Z,34.18
2023-04-15T20:01:30.438Z,34.31
2023-04-15T20:03:58.633Z,34.29
2023-04-15T20:06:27.537Z,34.39
2023-04-15T20:08:55.542Z,34.34
2023-04-15T20:12:45.606Z,34.38
2023-04-15T20:14:17.831Z,34.36
2023-04-15T20:16:45.823Z,34.35
2023-04-15T20:19:13.977Z,34.41
2023-04-15T20:21:41.998Z,34.51
2023-04-15T20:24:10.267Z,34.41
2023-04-15T20:26:38.345Z,34.40
2023-04-15T20:29:06.564Z,34.41
2023-04-15T20:31:34.958Z,34.48
2023-04-15T20:34:02.892Z,34.46
2023-04-15T20:36:31.857Z,34.42
2023-04-15T20:38:59.735Z,34.40
2023-04-15T20:41:27.846Z,34.46
2023-04-15T20:43:55.979Z,34.44
2023-04-15T20:46:25.828Z,34.52
2023-04-15T20:48:55.740Z,34.41
2023-04-15T20:51:23.716Z,34.50
2023-04-15T20:53:51.862Z,34.57
2023-04-15T20:56:19.754Z,34.56
2023-04-15T20:58:47.718Z,34.49
2023-04-15T21:01:15.841Z,34.57
2023-04-15T21:03:43.950Z,34.52
2023-04-15T21:06:11.910Z,34.53
2023-04-15T21:08:39.876Z,34.60
2023-04-15T21:11:07.876Z,34.55
2023-04-15T21:13:35.938Z,34.45
2023-04-15T21:16:04.156Z,34.57
2023-04-15T21:18:32.186Z,34.66
2023-04-15T21:21:00.655Z,34.68
2023-04-15T21:23:29.657Z,34.66
2023-04-15T21:25:58.532Z,34.65
2023-04-15T21:28:28.132Z,34.63
2023-04-15T21:30:56.900Z,34.63
2023-04-15T21:33:25.178Z,34.67
2023-04-15T21:35:53.794Z,34.66
2023-04-15T21:38:23.373Z,34.64
2023-04-15T21:40:51.576Z,34.66
2023-04-15T21:43:21.579Z,34.65
2023-04-15T21:46:21.050Z,34.71
2023-04-15T21:48:37.534Z,34.64
2023-04-15T21:51:05.611Z,34.71
2023-04-15T21:53:33.625Z,34.63
2023-04-15T21:56:01.730Z,34.57
2023-04-15T21:58:29.866Z,34.68
2023-04-15T22:01:00.118Z,34.78
2023-04-15T22:03:33.736Z,34.63
2023-04-15T22:06:02.742Z,34.79
2023-04-15T22:08:36.087Z,34.73
2023-04-15T22:11:18.749Z,34.68
2023-04-15T22:13:46.863Z,34.77
2023-04-15T22:16:14.933Z,34.78
2023-04-15T22:18:42.996Z,34.81
2023-04-15T22:21:12.793Z,34.86
2023-04-15T22:23:40.922Z,34.79
2023-04-15T22:26:08.979Z,34.78
2023-04-15T22:28:36.854Z,34.75
2023-04-15T22:31:04.985Z,34.82
2023-04-15T22:33:32.939Z,34.80
2023-04-15T22:36:01.140Z,34.90
2023-04-15T22:38:29.246Z,34.92
2023-04-15T22:40:57.238Z,34.86
2023-04-15T22:43:25.984Z,34.86
2023-04-15T22:45:54.985Z,34.94
2023-04-15T22:48:23.286Z,34.87
2023-04-15T22:50:51.548Z,34.93
2023-04-15T22:53:20.084Z,34.95
2023-04-15T22:55:48.252Z,34.87
2023-04-15T22:58:17.113Z,35.02
2023-04-15T23:00:45.432Z,35.01
2023-04-15T23:03:13.610Z,35.05
2023-04-15T23:05:41.930Z,34.95
2023-04-15T23:08:09.862Z,35.02
2023-04-15T23:10:40.094Z,34.98
2023-04-15T23:13:08.078Z,35.03
2023-04-15T23:15:36.149Z,34.97
2023-04-15T23:18:04.154Z,35.10
2023-04-15T23:20:32.204Z,35.06
2023-04-15T23:23:00.252Z,35.03
2023-04-15T23:25:28.263Z,35.06
2023-04-15T23:27:56.228Z,35.13
2023-04-15T23:30:24.237Z,35.09
2023-04-15T23:32:52.121Z,35.17
2023-04-15T23:35:20.030Z,35.05
2023-04-15T23:37:48.016Z,35.09
2023-04-15T23:40:16.023Z,35.06
2023-04-15T23:42:44.399Z,35.09
2023-04-15T23:45:12.567Z,35.10
2023-04-15T23:47:40.643Z,35.15
2023-04-15T23:50:09.255Z,35.11
2023-04-15T23:52:37.338Z,35.13
2023-04-15T23:55:05.675Z,35.17
2023-04-15T23:57:33.632Z,35.10
